Time;durP1;ratioP1;P1;durP2;ratioP2;P2;SDS_P1;SDS_P2;PMS_P1;PMS_P2;Temp;Humidity;BMP_temperature;BMP_pressure;BME280_temperature;BME280_humidity;BME280_pressure;Samples;Min_cycle;Max_cycle;Signal;HPM_P1;HPM_P2
2022/05/14 00:00:01;;;;;;;19.38;14.00;;;29.20;99.90;;;;;;4154648;28;20049;-71
2022/05/14 00:02:07;;;;;;;16.67;12.45;;;29.30;99.90;;;;;;4189072;28;20784;-69
2022/05/14 00:04:11;;;;;;;18.45;14.15;;;29.30;99.90;;;;;;4187096;28;20040;-69
2022/05/14 00:06:18;;;;;;;17.38;12.43;;;29.40;99.90;;;;;;4186968;28;20037;-69
2022/05/14 00:08:23;;;;;;;19.67;14.40;;;29.50;99.90;;;;;;4189958;28;20048;-69
2022/05/14 00:10:29;;;;;;;17.00;12.38;;;29.50;99.90;;;;;;4186329;28;20449;-69
2022/05/14 00:14:50;;;;;;;18.42;12.55;;;29.70;99.90;;;;;;4189871;28;20067;-69
2022/05/14 00:16:55;;;;;;;17.60;11.07;;;29.70;99.90;;;;;;4187829;28;20044;-69
2022/05/14 00:19:01;;;;;;;16.00;11.77;;;29.70;99.90;;;;;;4170542;28;20053;-69
2022/05/14 00:21:07;;;;;;;17.25;11.43;;;29.80;99.90;;;;;;4188642;28;20052;-69
2022/05/14 00:23:14;;;;;;;14.63;11.18;;;29.80;99.90;;;;;;4188367;28;20052;-68
2022/05/14 00:25:22;;;;;;;14.73;11.27;;;29.90;99.90;;;;;;4186952;28;20064;-69
2022/05/14 00:27:27;;;;;;;15.93;11.52;;;29.90;99.90;;;;;;4187663;28;20055;-69
2022/05/14 00:29:32;;;;;;;19.48;12.73;;;29.90;99.90;;;;;;4186656;28;20041;-69
2022/05/14 00:31:40;;;;;;;14.38;11.15;;;29.90;99.90;;;;;;4190592;28;20064;-69
2022/05/14 00:33:46;;;;;;;17.25;11.88;;;30.00;99.90;;;;;;4188240;28;20411;-69
2022/05/14 00:35:50;;;;;;;13.20;11.15;;;30.10;99.90;;;;;;4189559;28;20047;-69
2022/05/14 00:37:57;;;;;;;20.90;12.43;;;30.20;99.90;;;;;;4186189;28;20874;-69
2022/05/14 00:40:07;;;;;;;15.07;11.15;;;30.20;99.90;;;;;;4187449;28;20051;-70
2022/05/14 00:42:12;;;;;;;14.45;11.45;;;30.30;99.90;;;;;;4188541;28;20151;-69
2022/05/14 00:44:24;;;;;;;13.73;9.98;;;30.30;99.90;;;;;;4153854;28;20735;-69
2022/05/14 00:46:55;;;;;;;15.65;10.20;;;30.40;99.90;;;;;;4188815;28;20048;-69
2022/05/14 00:49:00;;;;;;;14.75;10.25;;;30.50;99.90;;;;;;4186119;28;20040;-69
2022/05/14 00:51:16;;;;;;;17.13;10.48;;;30.50;99.90;;;;;;4188598;28;20052;-69
2022/05/14 00:53:27;;;;;;;16.38;10.18;;;30.60;99.90;;;;;;4170294;28;20072;-70
2022/05/14 00:55:32;;;;;;;14.68;9.60;;;30.60;99.90;;;;;;4204590;28;20105;-69
2022/05/14 00:57:38;;;;;;;14.02;9.15;;;30.70;99.90;;;;;;4195616;28;20037;-69
2022/05/14 00:59:43;;;;;;;14.85;9.32;;;30.80;99.90;;;;;;4190907;28;20140;-69
2022/05/14 01:01:49;;;;;;;15.30;8.70;;;30.90;99.90;;;;;;4181577;28;20067;-69
2022/05/14 01:03:58;;;;;;;15.00;8.75;;;31.00;99.90;;;;;;4190450;28;20051;-69
2022/05/14 01:06:04;;;;;;;11.98;8.25;;;31.00;99.90;;;;;;4200235;28;20152;-70
2022/05/14 01:08:10;;;;;;;14.70;8.40;;;31.00;99.90;;;;;;4194672;28;20056;-69
2022/05/14 01:10:20;;;;;;;11.65;8.20;;;31.00;99.90;;;;;;4171276;28;20075;-68
2022/05/14 01:12:27;;;;;;;14.45;8.77;;;31.00;99.90;;;;;;4192982;28;20450;-69
2022/05/14 01:14:31;;;;;;;13.98;9.05;;;30.90;99.90;;;;;;4175686;28;20060;-69
2022/05/14 01:16:41;;;;;;;12.38;8.20;;;30.90;99.90;;;;;;4191320;28;20094;-69
2022/05/14 01:18:46;;;;;;;13.45;8.20;;;30.90;99.90;;;;;;4186831;28;20485;-69
2022/05/14 01:20:54;;;;;;;12.35;8.63;;;30.90;99.90;;;;;;4190109;28;20063;-70
2022/05/14 01:23:23;;;;;;;13.48;8.68;;;30.90;99.90;;;;;;4192382;28;20063;-68
2022/05/14 01:28:13;;;;;;;14.68;8.35;;;31.00;99.90;;;;;;4194461;28;20540;-70
2022/05/14 01:30:18;;;;;;;14.55;8.02;;;31.10;99.90;;;;;;4193988;28;20052;-71
2022/05/14 01:32:35;;;;;;;11.02;7.85;;;31.20;99.90;;;;;;4186576;28;20040;-70
2022/05/14 01:34:41;;;;;;;12.38;7.53;;;31.20;99.90;;;;;;4191422;28;20040;-71
2022/05/14 01:36:49;;;;;;;11.45;7.63;;;31.20;99.90;;;;;;4190725;28;20044;-71
2022/05/14 01:38:55;;;;;;;14.32;8.23;;;31.30;99.90;;;;;;4192426;28;20106;-71
2022/05/14 01:41:04;;;;;;;11.05;8.07;;;31.30;99.90;;;;;;4192903;28;20070;-69
2022/05/14 01:43:10;;;;;;;10.60;7.55;;;31.40;99.90;;;;;;4196623;28;20068;-69
2022/05/14 01:45:17;;;;;;;12.77;7.60;;;31.40;99.90;;;;;;4176177;28;20132;-69
2022/05/14 01:47:27;;;;;;;12.90;7.90;;;31.50;99.90;;;;;;4191481;28;20040;-70
2022/05/14 01:49:32;;;;;;;10.48;7.40;;;31.50;99.90;;;;;;4190929;28;20049;-72
2022/05/14 01:51:37;;;;;;;14.18;7.75;;;31.60;99.90;;;;;;4188684;28;20037;-70
2022/05/14 01:53:47;;;;;;;13.77;7.80;;;31.60;99.90;;;;;;4190662;28;20568;-71
2022/05/14 01:55:55;;;;;;;14.70;7.70;;;31.70;99.90;;;;;;4193177;28;20044;-71
2022/05/14 01:58:00;;;;;;;12.25;7.65;;;31.70;99.90;;;;;;4177236;28;20060;-71
2022/05/14 02:00:17;;;;;;;11.38;8.07;;;31.80;99.90;;;;;;4188291;28;20040;-71
2022/05/14 02:02:26;;;;;;;11.27;7.07;;;31.80;99.90;;;;;;4192760;28;20179;-71
2022/05/14 02:04:32;;;;;;;11.95;8.07;;;31.90;99.90;;;;;;4225102;28;20040;-72
2022/05/14 02:06:39;;;;;;;11.05;7.95;;;32.00;99.90;;;;;;4190984;28;20048;-71
2022/05/14 02:08:45;;;;;;;10.52;7.57;;;32.10;99.90;;;;;;4190022;28;20071;-70
2022/05/14 02:10:50;;;;;;;14.05;7.85;;;32.10;99.90;;;;;;4194713;28;20052;-71
2022/05/14 02:12:59;;;;;;;10.77;7.60;;;32.20;99.90;;;;;;4184453;28;20044;-71
2022/05/14 02:15:06;;;;;;;11.77;6.97;;;32.30;99.90;;;;;;4194602;28;20155;-71
2022/05/14 02:17:13;;;;;;;12.85;7.47;;;32.30;99.90;;;;;;4174388;28;20045;-71
2022/05/14 02:19:21;;;;;;;11.70;7.43;;;32.40;99.90;;;;;;4194726;28;20131;-71
2022/05/14 02:21:28;;;;;;;12.07;7.05;;;32.30;99.90;;;;;;4194720;28;20049;-68
2022/05/14 02:23:34;;;;;;;11.52;6.93;;;32.30;99.90;;;;;;4190454;28;20056;-70
2022/05/14 02:25:44;;;;;;;9.43;6.47;;;32.30;99.90;;;;;;4194224;28;20048;-71
2022/05/14 02:27:49;;;;;;;9.00;6.53;;;32.30;99.90;;;;;;4193201;28;20419;-71
2022/05/14 02:29:54;;;;;;;11.55;6.95;;;32.30;99.80;;;;;;4177295;28;20547;-70
2022/05/14 02:32:03;;;;;;;11.55;8.52;;;32.40;99.90;;;;;;4168295;28;20084;-70
2022/05/14 02:34:09;;;;;;;17.40;10.25;;;32.50;99.90;;;;;;4192182;28;20076;-70
2022/05/14 02:36:18;;;;;;;11.45;9.68;;;32.60;99.90;;;;;;4192559;28;20036;-70
2022/05/14 02:38:28;;;;;;;11.95;7.60;;;32.60;99.60;;;;;;4193725;28;20080;-70
2022/05/14 02:40:34;;;;;;;11.52;7.63;;;32.70;99.50;;;;;;4188650;28;20048;-68
2022/05/14 02:42:40;;;;;;;11.55;7.20;;;32.70;99.40;;;;;;4191818;28;20098;-70
2022/05/14 02:44:48;;;;;;;10.27;7.20;;;32.80;99.50;;;;;;4194017;28;20445;-71
2022/05/14 02:46:53;;;;;;;10.80;6.75;;;32.80;99.50;;;;;;4194210;28;20101;-69
2022/05/14 02:49:00;;;;;;;9.52;6.45;;;32.80;99.10;;;;;;4192412;28;20040;-70
2022/05/14 02:51:05;;;;;;;10.63;7.13;;;32.90;98.60;;;;;;4192015;28;20046;-70
2022/05/14 02:53:11;;;;;;;11.05;6.63;;;32.90;98.60;;;;;;4193735;28;20049;-70
2022/05/14 02:55:16;;;;;;;10.98;6.90;;;33.00;98.50;;;;;;4192338;28;20048;-71
2022/05/14 02:57:26;;;;;;;11.35;6.40;;;33.00;98.60;;;;;;4192698;28;20052;-71
2022/05/14 02:59:32;;;;;;;9.63;6.38;;;33.10;98.70;;;;;;4194377;28;20411;-71
2022/05/14 03:01:37;;;;;;;9.65;6.50;;;33.20;98.50;;;;;;4194962;28;20056;-71
2022/05/14 03:03:44;;;;;;;10.15;6.57;;;33.20;97.90;;;;;;4194656;28;20060;-70
2022/05/14 03:05:49;;;;;;;10.20;6.35;;;33.20;97.50;;;;;;4220602;28;20048;-71
2022/05/14 03:07:54;;;;;;;11.10;6.80;;;33.20;97.60;;;;;;4193118;28;20407;-71
2022/05/14 03:10:03;;;;;;;13.15;6.18;;;33.30;97.70;;;;;;4192986;28;20041;-71
2022/05/14 03:12:10;;;;;;;9.23;6.03;;;33.40;97.80;;;;;;4194234;28;20395;-71
2022/05/14 03:14:14;;;;;;;12.98;6.90;;;33.50;97.60;;;;;;4192600;28;20070;-71
2022/05/14 03:16:21;;;;;;;12.07;6.85;;;33.50;97.70;;;;;;4193065;28;20040;-71
2022/05/14 03:18:26;;;;;;;9.20;6.22;;;33.60;97.50;;;;;;4192238;28;20110;-71
2022/05/14 03:20:31;;;;;;;11.95;6.78;;;33.60;97.30;;;;;;4192795;28;20518;-71
2022/05/14 03:22:39;;;;;;;18.90;6.25;;;33.70;97.20;;;;;;4191184;28;20461;-71
2022/05/14 03:24:44;;;;;;;10.13;6.32;;;33.80;97.40;;;;;;4192120;28;20095;-71
2022/05/14 03:26:51;;;;;;;9.20;6.05;;;33.80;97.20;;;;;;4191066;28;20075;-71
2022/05/14 03:29:00;;;;;;;12.60;6.90;;;33.90;97.00;;;;;;4193526;28;20140;-71
2022/05/14 03:31:05;;;;;;;11.93;6.60;;;34.00;96.70;;;;;;4192889;28;20106;-71
2022/05/14 03:33:10;;;;;;;10.10;6.15;;;34.10;96.40;;;;;;4190640;28;20826;-71
2022/05/14 03:35:18;;;;;;;11.95;6.00;;;34.10;96.70;;;;;;4194045;28;20047;-70
2022/05/14 03:37:26;;;;;;;9.75;5.82;;;34.10;96.10;;;;;;4191768;28;20102;-71
2022/05/14 03:39:30;;;;;;;9.77;5.82;;;34.10;95.90;;;;;;4192473;28;20110;-71
2022/05/14 03:41:40;;;;;;;9.20;5.88;;;34.10;96.50;;;;;;4158892;28;20053;-71
2022/05/14 03:43:45;;;;;;;9.85;5.70;;;34.00;96.60;;;;;;4192960;28;20079;-71
2022/05/14 03:45:50;;;;;;;9.38;5.55;;;34.00;96.60;;;;;;4190409;28;20049;-71
2022/05/14 03:47:57;;;;;;;10.80;6.88;;;34.20;96.30;;;;;;4218382;28;20043;-71
2022/05/14 03:50:01;;;;;;;12.07;5.70;;;34.30;95.80;;;;;;4193118;28;20052;-71
2022/05/14 03:52:08;;;;;;;8.55;5.55;;;34.40;95.80;;;;;;4205995;28;20051;-71
2022/05/14 03:54:15;;;;;;;8.77;5.70;;;34.40;95.00;;;;;;4191883;28;20044;-71
2022/05/14 03:56:20;;;;;;;10.95;6.18;;;34.50;95.20;;;;;;4192253;28;20048;-70
2022/05/14 03:58:25;;;;;;;9.73;5.93;;;34.60;95.20;;;;;;4191103;28;20131;-71
2022/05/14 04:00:34;;;;;;;8.77;5.72;;;34.60;95.10;;;;;;4175603;28;20044;-71
2022/05/14 04:02:40;;;;;;;9.23;5.60;;;34.50;94.70;;;;;;4174284;28;20049;-69
2022/05/14 04:04:45;;;;;;;7.97;5.18;;;34.50;95.10;;;;;;4171426;28;20045;-73
2022/05/14 04:06:58;;;;;;;7.95;5.07;;;34.70;94.70;;;;;;4153430;28;21032;-70
2022/05/14 04:09:03;;;;;;;8.70;5.57;;;34.70;94.50;;;;;;4189728;28;20536;-71
2022/05/14 04:11:09;;;;;;;7.65;5.22;;;34.80;94.40;;;;;;4207060;28;20059;-71
2022/05/14 04:13:18;;;;;;;11.70;5.60;;;34.90;94.10;;;;;;4205528;28;20047;-71
2022/05/14 04:15:25;;;;;;;8.68;5.10;;;34.80;94.50;;;;;;4187981;28;20499;-70
2022/05/14 04:17:30;;;;;;;13.45;5.68;;;34.70;94.90;;;;;;4174541;28;20045;-72
2022/05/14 04:19:41;;;;;;;8.60;5.30;;;34.50;94.90;;;;;;4189312;28;20121;-71
2022/05/14 04:21:47;;;;;;;8.65;5.60;;;34.40;95.10;;;;;;4189276;28;20060;-70
2022/05/14 04:23:52;;;;;;;10.27;5.85;;;34.40;95.40;;;;;;4188838;28;20051;-70
2022/05/14 04:26:01;;;;;;;9.68;6.18;;;34.60;95.00;;;;;;4154592;28;20049;-71
2022/05/14 04:28:08;;;;;;;8.38;5.70;;;34.80;95.00;;;;;;4188628;28;20041;-70
2022/05/14 04:30:14;;;;;;;9.77;5.85;;;34.70;94.80;;;;;;4188898;28;20073;-71
2022/05/14 04:32:22;;;;;;;8.57;5.40;;;34.60;94.70;;;;;;4190293;28;20097;-71
2022/05/14 04:34:27;;;;;;;11.73;5.78;;;34.50;94.90;;;;;;4189597;28;20049;-71
2022/05/14 04:36:32;;;;;;;8.93;5.57;;;34.60;95.00;;;;;;4189297;28;20079;-71
2022/05/14 04:38:40;;;;;;;8.60;5.80;;;34.70;94.90;;;;;;4188738;28;20388;-71
2022/05/14 04:40:45;;;;;;;7.72;5.70;;;34.60;94.90;;;;;;4189344;28;20944;-72
2022/05/14 04:42:50;;;;;;;10.50;5.72;;;34.70;95.20;;;;;;4172397;28;20126;-70
2022/05/14 04:44:57;;;;;;;9.52;5.97;;;34.70;94.90;;;;;;4189101;28;20094;-70
2022/05/14 04:47:03;;;;;;;8.68;5.97;;;34.70;94.60;;;;;;4188584;28;20060;-70
2022/05/14 04:49:16;;;;;;;7.95;5.15;;;34.70;94.50;;;;;;4190273;28;20096;-71
2022/05/14 04:51:21;;;;;;;9.82;6.03;;;34.70;94.30;;;;;;4190791;28;20045;-70
2022/05/14 04:53:26;;;;;;;9.48;5.90;;;34.80;93.70;;;;;;4190125;28;20507;-70
2022/05/14 04:55:31;;;;;;;9.43;5.93;;;35.00;93.60;;;;;;4191210;28;20075;-70
2022/05/14 04:57:43;;;;;;;8.98;5.90;;;35.20;93.50;;;;;;4191973;28;20518;-71
2022/05/14 04:59:49;;;;;;;8.02;5.25;;;35.30;93.70;;;;;;4191992;28;20403;-71
2022/05/14 05:04:19;;;;;;;7.43;4.60;;;35.40;93.00;;;;;;4192321;28;20082;-70
2022/05/14 05:06:25;;;;;;;8.57;3.97;;;35.50;92.80;;;;;;4195162;28;20782;-70
2022/05/14 05:08:31;;;;;;;7.60;3.92;;;35.50;92.10;;;;;;4194158;28;20044;-71
2022/05/14 05:10:39;;;;;;;8.25;4.50;;;35.60;92.20;;;;;;4196107;28;20049;-71
2022/05/14 05:12:44;;;;;;;8.43;4.25;;;35.70;92.00;;;;;;4195123;28;20063;-70
2022/05/14 05:14:48;;;;;;;8.43;4.10;;;35.80;91.90;;;;;;4194175;28;20048;-71
2022/05/14 05:16:57;;;;;;;7.53;5.00;;;35.80;92.00;;;;;;4192299;28;20048;-71
2022/05/14 05:19:02;;;;;;;6.75;4.10;;;35.90;91.90;;;;;;4193684;28;20040;-71
2022/05/14 05:21:07;;;;;;;7.55;4.20;;;35.90;91.60;;;;;;4186760;28;20057;-69
2022/05/14 05:23:14;;;;;;;6.75;4.15;;;36.00;91.50;;;;;;4181596;28;20052;-71
2022/05/14 05:25:19;;;;;;;5.38;3.70;;;36.00;91.20;;;;;;4187431;28;20048;-72
2022/05/14 05:27:24;;;;;;;7.45;4.40;;;36.20;90.80;;;;;;4188251;28;20552;-70
2022/05/14 05:29:32;;;;;;;7.28;3.70;;;36.20;90.60;;;;;;4188229;28;20052;-70
2022/05/14 05:31:39;;;;;;;8.13;3.72;;;36.30;91.10;;;;;;4190068;28;20044;-70
2022/05/14 05:33:44;;;;;;;8.90;3.70;;;36.30;90.30;;;;;;4188400;28;20056;-70
2022/05/14 05:35:50;;;;;;;7.28;4.10;;;36.40;90.40;;;;;;4190037;28;20147;-71
2022/05/14 05:37:55;;;;;;;6.60;3.65;;;36.30;90.40;;;;;;4191363;28;20044;-71
2022/05/14 05:40:00;;;;;;;5.88;4.35;;;36.30;90.20;;;;;;4191243;28;20041;-72
2022/05/14 05:42:08;;;;;;;8.80;3.70;;;36.20;90.50;;;;;;4189670;28;20041;-72
2022/05/14 05:44:18;;;;;;;7.68;3.67;;;36.10;90.70;;;;;;4186033;28;20131;-71
2022/05/14 05:46:22;;;;;;;5.82;3.60;;;36.30;90.60;;;;;;4189534;28;20158;-72
2022/05/14 05:48:31;;;;;;;7.68;4.13;;;36.40;90.40;;;;;;4186765;28;20063;-72
2022/05/14 05:50:38;;;;;;;6.30;4.07;;;36.40;89.90;;;;;;4190408;28;20546;-72
2022/05/14 05:52:42;;;;;;;6.18;3.72;;;36.50;89.60;;;;;;4183687;28;20522;-72
2022/05/14 05:57:07;;;;;;;7.82;3.60;;;36.70;89.30;;;;;;4190242;28;20051;-73
2022/05/14 05:59:11;;;;;;;6.57;3.30;;;36.80;87.70;;;;;;4188490;28;20040;-72
2022/05/14 06:01:18;;;;;;;5.95;3.58;;;36.50;87.80;;;;;;4189011;28;20820;-72
2022/05/14 06:03:23;;;;;;;5.60;3.47;;;36.50;88.20;;;;;;4193183;28;20040;-72
2022/05/14 06:05:28;;;;;;;4.68;3.38;;;36.40;89.00;;;;;;4192096;28;20049;-72
2022/05/14 06:07:34;;;;;;;7.68;3.38;;;36.40;88.70;;;;;;4189792;28;20167;-72
2022/05/14 06:09:39;;;;;;;5.65;3.20;;;36.50;88.40;;;;;;4187507;28;20044;-72
2022/05/14 06:11:44;;;;;;;5.13;3.00;;;36.50;88.30;;;;;;4187709;28;20052;-72
2022/05/14 06:13:53;;;;;;;7.65;3.55;;;36.60;87.40;;;;;;4189887;28;20072;-72
2022/05/14 06:15:57;;;;;;;5.35;3.38;;;36.50;86.00;;;;;;4190341;28;20048;-73
2022/05/14 06:18:03;;;;;;;10.35;4.25;;;36.20;88.10;;;;;;4200970;28;20048;-72
2022/05/14 06:20:12;;;;;;;7.80;3.83;;;36.00;87.70;;;;;;4187154;28;20137;-73
2022/05/14 06:22:17;;;;;;;6.57;3.50;;;35.70;88.40;;;;;;4189167;28;20113;-73
2022/05/14 06:24:21;;;;;;;9.57;3.70;;;35.60;89.20;;;;;;4195791;28;20490;-73
2022/05/14 06:26:30;;;;;;;10.60;3.85;;;35.60;89.10;;;;;;4187237;28;20053;-73
2022/05/14 06:28:35;;;;;;;7.35;3.40;;;35.50;89.90;;;;;;4188394;28;20044;-72
2022/05/14 06:30:43;;;;;;;5.10;3.10;;;35.70;89.30;;;;;;4189358;28;20917;-73
2022/05/14 06:32:50;;;;;;;7.45;3.40;;;35.70;88.30;;;;;;4187965;28;20392;-72
2022/05/14 06:34:54;;;;;;;6.45;3.83;;;35.80;87.90;;;;;;4200405;28;20056;-72
2022/05/14 06:37:00;;;;;;;10.27;3.67;;;35.70;87.70;;;;;;4189797;28;20097;-71
2022/05/14 06:39:05;;;;;;;5.82;3.35;;;35.80;87.80;;;;;;4183560;28;20566;-72
2022/05/14 06:41:11;;;;;;;8.02;3.67;;;35.90;87.50;;;;;;4187141;28;20082;-72
2022/05/14 06:43:16;;;;;;;4.53;3.03;;;36.10;87.00;;;;;;4186740;28;20132;-72
2022/05/14 06:45:23;;;;;;;5.53;3.85;;;36.10;87.60;;;;;;4188227;28;20044;-73
2022/05/14 06:47:28;;;;;;;5.47;3.35;;;36.10;87.40;;;;;;4187993;28;20554;-72
2022/05/14 06:49:32;;;;;;;7.28;3.67;;;35.90;88.50;;;;;;4187732;28;20576;-71
2022/05/14 06:51:38;;;;;;;5.95;3.72;;;35.80;88.50;;;;;;4188413;28;20059;-73
2022/05/14 06:53:42;;;;;;;4.97;3.85;;;35.60;89.00;;;;;;4189420;28;20043;-72
2022/05/14 06:55:48;;;;;;;9.27;4.25;;;35.50;89.00;;;;;;4187702;28;20446;-72
2022/05/14 06:57:54;;;;;;;9.02;4.10;;;35.40;89.60;;;;;;4188470;28;20048;-72
2022/05/14 07:00:00;;;;;;;7.65;3.83;;;35.20;89.70;;;;;;4188232;28;20729;-73
2022/05/14 07:02:05;;;;;;;9.43;4.55;;;35.20;88.70;;;;;;4185438;28;20102;-72
2022/05/14 07:06:38;;;;;;;12.55;7.63;;;33.90;93.60;;;;;;4182823;28;21053;-72
2022/05/14 07:08:45;;;;;;;12.23;7.03;;;33.10;94.50;;;;;;4188711;28;20781;-69
2022/05/14 07:10:52;;;;;;;14.38;5.63;;;32.80;95.20;;;;;;4188103;28;20041;-71
2022/05/14 07:12:56;;;;;;;8.43;5.10;;;32.70;94.60;;;;;;4187987;28;20068;-73
2022/05/14 07:15:02;;;;;;;14.23;5.65;;;32.00;94.60;;;;;;4187825;28;20044;-71
2022/05/14 07:17:08;;;;;;;12.63;4.38;;;31.50;95.60;;;;;;4183765;28;20941;-72
2022/05/14 07:19:13;;;;;;;9.27;2.70;;;31.60;95.50;;;;;;4187466;28;20524;-71
2022/05/14 07:21:18;;;;;;;5.88;2.42;;;31.30;95.50;;;;;;4187119;28;20529;-71
2022/05/14 07:23:24;;;;;;;14.10;2.80;;;31.10;96.00;;;;;;4184970;28;20657;-73
2022/05/14 07:25:30;;;;;;;6.22;2.45;;;30.90;96.30;;;;;;4188303;28;20045;-72
2022/05/14 07:27:36;;;;;;;10.88;2.65;;;30.80;96.30;;;;;;4184666;28;20080;-71
2022/05/14 07:29:44;;;;;;;5.35;2.40;;;30.50;96.30;;;;;;4185352;28;20929;-71
2022/05/14 07:31:48;;;;;;;16.88;2.92;;;30.30;96.50;;;;;;4185353;28;20745;-71
2022/05/14 07:33:54;;;;;;;6.32;2.72;;;30.00;97.40;;;;;;4187738;28;20119;-72
2022/05/14 07:36:07;;;;;;;9.73;2.10;;;30.20;97.10;;;;;;4166437;28;20049;-71
2022/05/14 07:38:12;;;;;;;9.02;2.58;;;30.10;97.10;;;;;;4185171;28;20135;-71
2022/05/14 07:40:22;;;;;;;4.20;1.95;;;30.10;97.40;;;;;;4187605;28;20822;-71
2022/05/14 07:42:34;;;;;;;6.63;2.40;;;30.30;97.20;;;;;;4187698;28;20136;-71
2022/05/14 07:44:40;;;;;;;11.02;3.33;;;30.00;97.50;;;;;;4186350;28;20052;-72
2022/05/14 07:46:46;;;;;;;6.13;2.97;;;29.90;97.90;;;;;;4187110;28;20110;-72
2022/05/14 07:48:55;;;;;;;5.57;2.60;;;29.80;98.20;;;;;;4166797;28;20147;-72
2022/05/14 07:51:01;;;;;;;6.05;2.70;;;29.90;98.20;;;;;;4186691;28;20044;-73
2022/05/14 07:53:05;;;;;;;6.85;2.35;;;30.00;98.20;;;;;;4186334;28;20449;-72
2022/05/14 07:55:14;;;;;;;6.88;2.50;;;30.00;98.20;;;;;;4185596;28;20044;-71
2022/05/14 07:57:20;;;;;;;4.22;2.10;;;30.10;98.30;;;;;;4186748;28;20761;-73
2022/05/14 07:59:24;;;;;;;8.07;3.22;;;30.00;98.40;;;;;;4185844;28;20391;-72
2022/05/14 08:01:30;;;;;;;10.50;3.10;;;29.70;99.20;;;;;;4185991;28;20732;-72
2022/05/14 08:03:36;;;;;;;9.48;3.40;;;29.80;98.90;;;;;;4187344;28;20593;-72
2022/05/14 08:05:40;;;;;;;8.43;3.35;;;29.70;99.20;;;;;;4187411;28;20052;-72
2022/05/14 08:07:54;;;;;;;13.13;3.40;;;30.00;98.70;;;;;;4187242;28;20048;-75
2022/05/14 08:10:00;;;;;;;8.30;2.63;;;30.10;99.90;;;;;;4185065;28;20049;-71
2022/05/14 08:12:07;;;;;;;8.18;3.05;;;29.80;99.40;;;;;;4186655;28;20765;-72
2022/05/14 08:14:15;;;;;;;8.52;3.28;;;29.70;99.90;;;;;;4140923;28;20052;-72
2022/05/14 08:16:22;;;;;;;8.07;4.05;;;29.70;99.90;;;;;;4187484;28;20063;-72
2022/05/14 08:18:26;;;;;;;12.30;4.85;;;29.80;99.80;;;;;;4187171;28;20045;-72
2022/05/14 08:20:34;;;;;;;10.10;3.17;;;29.50;99.90;;;;;;4185291;28;20106;-72
2022/05/14 08:24:57;;;;;;;7.80;3.83;;;29.60;99.90;;;;;;4183002;28;20838;-72
2022/05/14 08:27:09;;;;;;;8.02;3.97;;;29.60;99.90;;;;;;4187481;28;20579;-73
2022/05/14 08:29:19;;;;;;;8.02;4.10;;;29.50;99.90;;;;;;4184515;28;20517;-73
2022/05/14 08:31:23;;;;;;;8.25;4.03;;;29.90;99.90;;;;;;4167794;28;20048;-73
2022/05/14 08:33:34;;;;;;;9.95;4.10;;;30.10;99.90;;;;;;4185544;28;20126;-73
2022/05/14 08:35:39;;;;;;;8.77;4.28;;;30.30;99.90;;;;;;4184720;28;20177;-73
2022/05/14 08:37:44;;;;;;;10.35;5.18;;;30.30;99.90;;;;;;4187132;28;20135;-72
2022/05/14 08:39:51;;;;;;;10.75;3.92;;;30.40;99.90;;;;;;4187534;28;20879;-72
2022/05/14 08:41:56;;;;;;;9.02;3.90;;;30.10;99.90;;;;;;4194457;28;20044;-72
2022/05/14 08:44:07;;;;;;;10.13;4.28;;;29.70;99.90;;;;;;4187027;28;20052;-72
2022/05/14 08:46:21;;;;;;;6.90;3.40;;;29.90;99.90;;;;;;4191613;28;20047;-72
2022/05/14 08:48:31;;;;;;;6.80;3.38;;;30.00;99.90;;;;;;4188244;28;20040;-73
2022/05/14 08:50:37;;;;;;;6.32;3.10;;;29.70;99.90;;;;;;4186099;28;20841;-73
2022/05/14 08:52:44;;;;;;;6.40;3.22;;;29.50;99.90;;;;;;4184656;28;20178;-73
2022/05/14 08:54:50;;;;;;;6.05;3.20;;;29.50;99.90;;;;;;4181765;28;20741;-73
2022/05/14 08:57:26;;;;;;;6.30;3.42;;;29.40;99.90;;;;;;4185360;28;20147;-72
2022/05/14 08:59:55;;;;;;;6.28;3.35;;;29.60;99.90;;;;;;4184339;28;20049;-73
2022/05/14 09:02:08;;;;;;;5.72;3.30;;;29.70;99.90;;;;;;4185812;28;20726;-72
2022/05/14 09:04:17;;;;;;;9.13;3.60;;;29.90;99.90;;;;;;4166518;28;20057;-73
2022/05/14 09:06:24;;;;;;;7.45;2.83;;;30.00;99.90;;;;;;4184847;28;20406;-72
2022/05/14 09:08:29;;;;;;;5.63;3.03;;;29.70;99.90;;;;;;4181916;28;20067;-73
2022/05/14 09:10:41;;;;;;;4.85;3.00;;;29.50;99.90;;;;;;4184526;28;20130;-73
2022/05/14 09:12:53;;;;;;;6.65;2.25;;;29.50;99.90;;;;;;4181491;28;20044;-73
2022/05/14 09:15:13;;;;;;;5.65;2.55;;;29.70;99.90;;;;;;4183587;28;20044;-72
2022/05/14 09:17:20;;;;;;;6.85;3.28;;;29.80;99.90;;;;;;4187600;28;20064;-72
2022/05/14 09:19:33;;;;;;;4.35;2.22;;;29.80;99.90;;;;;;4185600;28;20036;-71
2022/05/14 09:21:38;;;;;;;8.30;3.67;;;29.70;99.90;;;;;;4189489;28;20059;-71
2022/05/14 09:23:44;;;;;;;7.07;3.22;;;29.40;99.90;;;;;;4191933;28;20139;-72
2022/05/14 09:25:51;;;;;;;6.40;3.17;;;29.40;99.90;;;;;;4186821;28;20074;-72
2022/05/14 09:27:58;;;;;;;7.50;2.50;;;29.40;99.90;;;;;;4188178;28;20048;-71
2022/05/14 09:30:05;;;;;;;5.20;2.92;;;29.50;99.90;;;;;;4187671;28;20380;-71
2022/05/14 09:32:44;;;;;;;4.55;2.67;;;29.40;99.90;;;;;;4185028;28;20461;-72
2022/05/14 09:34:51;;;;;;;7.30;3.63;;;29.10;99.90;;;;;;4180817;28;20052;-71
2022/05/14 09:37:24;;;;;;;5.38;3.15;;;29.00;99.90;;;;;;4181563;28;20044;-72
2022/05/14 09:39:28;;;;;;;6.53;3.33;;;29.20;99.90;;;;;;4182980;28;20059;-72
2022/05/14 09:41:40;;;;;;;9.35;3.88;;;29.10;99.90;;;;;;4184666;28;20109;-72
2022/05/14 09:43:47;;;;;;;8.75;3.50;;;28.80;99.90;;;;;;4184707;28;20060;-72
2022/05/14 09:46:03;;;;;;;7.55;3.70;;;28.90;99.90;;;;;;4183161;28;20044;-72
2022/05/14 09:48:18;;;;;;;12.32;4.28;;;29.10;99.90;;;;;;4187602;28;20506;-72
2022/05/14 09:50:30;;;;;;;13.00;5.40;;;29.10;99.90;;;;;;4186202;28;20049;-72
2022/05/14 09:52:39;;;;;;;9.90;4.05;;;29.10;99.90;;;;;;4136836;28;20148;-72
2022/05/14 09:54:48;;;;;;;8.75;3.95;;;29.00;99.90;;;;;;4187299;28;20048;-71
2022/05/14 09:57:32;;;;;;;8.15;4.13;;;29.00;99.90;;;;;;4187405;28;20450;-72
2022/05/14 10:00:10;;;;;;;7.50;3.78;;;29.20;99.90;;;;;;4188097;28;20067;-72
2022/05/14 10:02:36;;;;;;;10.52;3.80;;;29.10;99.90;;;;;;4189148;28;20098;-71
2022/05/14 10:05:22;;;;;;;7.68;3.45;;;29.20;99.90;;;;;;4188194;28;20056;-71
2022/05/14 10:07:33;;;;;;;8.25;3.88;;;29.40;99.90;;;;;;4185285;28;20053;-72
2022/05/14 10:10:02;;;;;;;7.00;3.67;;;29.60;99.90;;;;;;4188297;28;20135;-72
2022/05/14 10:12:32;;;;;;;6.85;3.22;;;29.60;99.90;;;;;;4187891;28;20045;-72
2022/05/14 10:15:01;;;;;;;11.27;3.95;;;29.70;99.90;;;;;;4203815;28;20142;-72
2022/05/14 10:17:30;;;;;;;6.80;3.20;;;29.70;99.90;;;;;;4171095;28;20053;-72
2022/05/14 10:20:13;;;;;;;7.60;3.67;;;29.60;99.90;;;;;;4185444;28;20056;-72
2022/05/14 10:26:44;;;;;;;8.20;3.58;;;29.80;99.90;;;;;;4184217;28;20064;-72
2022/05/14 10:28:00;;;;;;;10.68;3.65;;;29.40;99.90;;;;;;4185576;28;20060;-71
2022/05/14 10:30:25;;;;;;;8.90;4.00;;;29.10;99.90;;;;;;4187873;28;20048;-71
2022/05/14 10:32:31;;;;;;;6.05;3.58;;;29.10;99.90;;;;;;4183569;28;20781;-71
2022/05/14 10:34:49;;;;;;;6.10;3.80;;;29.30;99.90;;;;;;4189380;28;20040;-71
2022/05/14 10:37:02;;;;;;;6.72;3.30;;;29.40;99.90;;;;;;4185564;28;20053;-71
2022/05/14 10:39:15;;;;;;;5.65;4.15;;;29.40;99.90;;;;;;4192280;28;20040;-71
2022/05/14 10:41:47;;;;;;;15.25;6.43;;;29.00;99.90;;;;;;4183717;28;20045;-71
2022/05/14 10:44:00;;;;;;;9.10;5.28;;;28.90;99.90;;;;;;4189594;28;20064;-71
2022/05/14 10:46:08;;;;;;;7.97;5.07;;;28.90;99.90;;;;;;4187399;28;20098;-72
2022/05/14 10:48:38;;;;;;;8.52;4.28;;;28.90;99.90;;;;;;4192595;28;20046;-72
2022/05/14 10:50:47;;;;;;;10.52;4.28;;;28.60;99.90;;;;;;4191093;28;20550;-72
2022/05/14 10:52:54;;;;;;;8.05;4.38;;;28.70;99.90;;;;;;4192889;28;20036;-72
2022/05/14 10:54:59;;;;;;;5.72;3.80;;;28.90;99.90;;;;;;4191066;28;20040;-72
2022/05/14 10:57:35;;;;;;;6.35;4.05;;;28.90;99.90;;;;;;4192540;28;20450;-73
2022/05/14 10:59:47;;;;;;;10.02;4.82;;;28.80;99.90;;;;;;4187775;28;20056;-73
2022/05/14 11:02:14;;;;;;;9.20;5.05;;;28.90;99.90;;;;;;4173346;28;20052;-73
2022/05/14 11:04:42;;;;;;;8.30;5.15;;;28.80;99.90;;;;;;4180594;28;20052;-70
2022/05/14 11:07:00;;;;;;;10.80;4.85;;;29.00;99.90;;;;;;4183449;28;20790;-71
2022/05/14 11:09:16;;;;;;;9.85;4.43;;;28.70;99.90;;;;;;4182996;28;20465;-72
2022/05/14 11:11:29;;;;;;;10.07;4.38;;;28.70;99.90;;;;;;4184203;28;20048;-72
2022/05/14 11:13:34;;;;;;;8.50;4.45;;;28.70;99.90;;;;;;4182890;28;20052;-71
2022/05/14 11:15:41;;;;;;;7.80;4.22;;;28.70;99.90;;;;;;4184425;28;20957;-72
2022/05/14 11:17:48;;;;;;;6.72;3.85;;;28.60;99.90;;;;;;4183780;28;20041;-71
2022/05/14 11:20:13;;;;;;;6.80;3.60;;;28.70;99.90;;;;;;4184702;28;20058;-70
2022/05/14 11:22:25;;;;;;;6.75;3.67;;;28.70;99.90;;;;;;4184402;28;20134;-72
2022/05/14 11:24:37;;;;;;;6.68;3.78;;;28.70;99.90;;;;;;4184191;28;20145;-72